Time;durP1;ratioP1;P1;durP2;ratioP2;P2;SDS_P1;SDS_P2;PMS_P1;PMS_P2;Temp;Humidity;BMP_temperature;BMP_pressure;BME280_temperature;BME280_humidity;BME280_pressure;Samples;Min_cycle;Max_cycle;Signal;HPM_P1;HPM_P2
2022/05/04 00:01:08;;;;;;;10.90;2.20;;;9.60;94.40;;;;;;5135748;27;20360;-70
2022/05/04 00:03:39;;;;;;;10.93;2.23;;;9.60;94.40;;;;;;5135709;27;20051;-70
2022/05/04 00:06:05;;;;;;;12.43;2.90;;;9.70;94.70;;;;;;5135803;27;20292;-70
2022/05/04 00:08:31;;;;;;;9.43;2.93;;;9.80;94.30;;;;;;5136334;27;20301;-70
2022/05/04 00:10:57;;;;;;;9.63;3.13;;;9.70;94.10;;;;;;5136369;27;20320;-70
2022/05/04 00:13:23;;;;;;;9.93;2.90;;;9.70;94.50;;;;;;5135820;27;20479;-70
2022/05/04 00:15:49;;;;;;;10.93;2.93;;;9.70;94.90;;;;;;5136566;27;20337;-68
2022/05/04 00:18:14;;;;;;;9.27;2.30;;;9.70;95.00;;;;;;5136340;27;20124;-68
2022/05/04 00:20:41;;;;;;;14.00;2.43;;;9.70;95.00;;;;;;5135980;27;20043;-68
2022/05/04 00:23:06;;;;;;;8.23;2.20;;;9.80;94.50;;;;;;5136311;27;20054;-68
2022/05/04 00:25:32;;;;;;;12.20;2.50;;;9.80;94.30;;;;;;5135882;27;20273;-68
2022/05/04 00:28:00;;;;;;;9.30;2.57;;;9.80;94.00;;;;;;5136420;27;20069;-68
2022/05/04 00:30:26;;;;;;;9.90;2.20;;;9.80;93.90;;;;;;5117763;27;20055;-68
2022/05/04 00:32:52;;;;;;;12.07;2.27;;;9.80;93.90;;;;;;5136103;27;20320;-68
2022/05/04 00:35:17;;;;;;;12.27;2.57;;;9.70;92.90;;;;;;5136434;27;20319;-68
2022/05/04 00:37:43;;;;;;;8.43;1.90;;;9.80;92.80;;;;;;5134433;27;20043;-68
2022/05/04 00:40:09;;;;;;;11.47;1.97;;;9.70;92.20;;;;;;5136429;27;20043;-68
2022/05/04 00:42:35;;;;;;;12.27;2.50;;;9.70;91.70;;;;;;5134665;27;20057;-68
2022/05/04 00:45:01;;;;;;;11.90;2.70;;;9.70;91.80;;;;;;5134908;27;20280;-68
2022/05/04 00:47:27;;;;;;;14.90;2.30;;;9.70;92.10;;;;;;5135546;27;20292;-68
2022/05/04 00:49:53;;;;;;;12.57;2.63;;;9.60;91.10;;;;;;5135738;27;20043;-68
2022/05/04 00:52:19;;;;;;;10.50;2.10;;;9.60;91.00;;;;;;5135463;27;20055;-68
2022/05/04 00:54:51;;;;;;;10.70;2.10;;;9.60;91.40;;;;;;5135070;27;20292;-68
2022/05/04 01:00:07;;;;;;;9.80;2.50;;;9.60;91.30;;;;;;5135788;27;20618;-68
2022/05/04 01:02:33;;;;;;;12.73;2.60;;;9.60;91.50;;;;;;5135111;27;20273;-68
2022/05/04 01:04:58;;;;;;;11.10;2.03;;;9.60;91.90;;;;;;5135456;27;20277;-68
2022/05/04 01:07:24;;;;;;;11.97;2.53;;;9.70;91.80;;;;;;5134183;27;20391;-68
2022/05/04 01:09:50;;;;;;;9.87;2.57;;;9.70;92.20;;;;;;5134694;27;20047;-68
2022/05/04 01:12:21;;;;;;;9.50;2.23;;;9.70;91.90;;;;;;5135150;27;20100;-68
2022/05/04 01:14:47;;;;;;;9.70;1.93;;;9.70;92.10;;;;;;5133980;27;20065;-68
2022/05/04 01:17:13;;;;;;;8.97;2.30;;;9.60;91.60;;;;;;5135137;27;20277;-68
2022/05/04 01:19:38;;;;;;;9.90;2.03;;;9.60;91.30;;;;;;5134909;27;20271;-68
2022/05/04 01:22:04;;;;;;;16.07;3.33;;;9.60;91.80;;;;;;5117128;27;20051;-68
2022/05/04 01:24:30;;;;;;;10.80;2.60;;;9.60;91.80;;;;;;5134799;27;20125;-68
2022/05/04 01:26:56;;;;;;;9.73;2.07;;;9.70;91.90;;;;;;5134991;27;20050;-68
2022/05/04 01:29:21;;;;;;;10.60;2.27;;;9.70;91.80;;;;;;5135048;27;20126;-68
2022/05/04 01:31:47;;;;;;;10.77;2.40;;;9.70;91.90;;;;;;5133413;27;20517;-68
2022/05/04 01:34:13;;;;;;;9.37;2.23;;;9.70;92.00;;;;;;5134918;27;20493;-68
2022/05/04 01:36:39;;;;;;;14.93;2.60;;;9.70;91.80;;;;;;5134523;27;20046;-68
2022/05/04 01:39:05;;;;;;;9.67;2.70;;;9.70;91.50;;;;;;5134916;27;20047;-68
2022/05/04 01:44:15;;;;;;;13.00;2.27;;;9.60;91.20;;;;;;5133862;27;20058;-68
2022/05/04 01:46:41;;;;;;;11.60;2.67;;;9.60;91.70;;;;;;5133365;27;20288;-68
2022/05/04 01:49:07;;;;;;;10.47;2.97;;;9.60;91.70;;;;;;5134559;27;20047;-68
2022/05/04 01:51:32;;;;;;;12.33;2.73;;;9.60;91.30;;;;;;5134303;27;20039;-68
2022/05/04 01:53:58;;;;;;;11.13;2.73;;;9.60;91.50;;;;;;5134699;27;20285;-68
2022/05/04 01:56:24;;;;;;;10.77;3.00;;;9.60;91.40;;;;;;5134927;27;20057;-68
2022/05/04 01:58:49;;;;;;;10.97;2.57;;;9.50;91.50;;;;;;5133786;27;20043;-68
2022/05/04 02:01:15;;;;;;;9.70;2.33;;;9.60;91.90;;;;;;5134326;27;20039;-68
2022/05/04 02:03:42;;;;;;;8.13;2.33;;;9.60;91.80;;;;;;5134039;27;20054;-68
2022/05/04 02:06:07;;;;;;;9.90;2.47;;;9.60;91.70;;;;;;5133619;27;20308;-68
2022/05/04 02:08:34;;;;;;;12.07;2.80;;;9.60;91.80;;;;;;5133873;27;20325;-68
2022/05/04 02:11:00;;;;;;;15.27;2.63;;;9.70;91.80;;;;;;5133240;27;20114;-68
2022/05/04 02:13:26;;;;;;;9.53;2.43;;;9.60;91.50;;;;;;5134287;27;20329;-68
2022/05/04 02:15:51;;;;;;;12.27;2.60;;;9.60;91.40;;;;;;5133827;27;20277;-68
2022/05/04 02:18:17;;;;;;;10.83;2.20;;;9.60;91.60;;;;;;5134438;27;20047;-68
2022/05/04 02:20:43;;;;;;;12.13;2.60;;;9.70;91.90;;;;;;5134083;27;20043;-68
2022/05/04 02:23:09;;;;;;;14.27;2.70;;;9.60;91.90;;;;;;5134227;27;20133;-68
2022/05/04 02:25:35;;;;;;;11.93;2.23;;;9.60;92.00;;;;;;5132614;27;20039;-68
2022/05/04 02:28:00;;;;;;;9.80;1.97;;;9.60;92.00;;;;;;5133062;27;20289;-68
2022/05/04 02:30:26;;;;;;;10.03;2.90;;;9.60;92.10;;;;;;5133969;27;20043;-68
2022/05/04 02:32:52;;;;;;;13.30;2.60;;;9.60;92.00;;;;;;5133533;27;20043;-68
2022/05/04 02:38:02;;;;;;;9.60;2.63;;;9.50;92.10;;;;;;5133892;28;20051;-68
2022/05/04 02:40:28;;;;;;;9.33;2.27;;;9.50;92.20;;;;;;5134022;27;20276;-68
2022/05/04 02:42:55;;;;;;;8.47;2.03;;;9.50;91.90;;;;;;5133521;27;20285;-68
2022/05/04 02:45:20;;;;;;;11.40;2.80;;;9.50;91.70;;;;;;5134080;27;20095;-68
2022/05/04 02:47:46;;;;;;;10.33;2.60;;;9.60;91.70;;;;;;5133486;28;20277;-68
2022/05/04 02:50:12;;;;;;;11.07;2.30;;;9.60;91.80;;;;;;5133823;28;20043;-68
2022/05/04 02:52:38;;;;;;;7.57;2.10;;;9.60;92.00;;;;;;5114965;28;20499;-69
2022/05/04 02:55:04;;;;;;;11.73;2.70;;;9.50;91.50;;;;;;5133718;28;20078;-68
2022/05/04 02:57:30;;;;;;;10.20;2.87;;;9.40;90.90;;;;;;5133664;27;20078;-68
2022/05/04 02:59:56;;;;;;;12.73;2.57;;;9.30;91.00;;;;;;5132358;28;20804;-68
2022/05/04 03:02:27;;;;;;;7.63;1.93;;;9.30;91.60;;;;;;5133604;28;20039;-68
2022/05/04 03:04:57;;;;;;;11.20;2.43;;;9.30;92.50;;;;;;5133343;28;20091;-68
2022/05/04 03:07:23;;;;;;;12.60;2.43;;;9.40;92.90;;;;;;5133644;27;20795;-68
2022/05/04 03:09:49;;;;;;;11.17;2.80;;;9.40;93.30;;;;;;5133318;28;20348;-68
2022/05/04 03:12:15;;;;;;;12.13;2.87;;;9.40;93.90;;;;;;5133436;27;20471;-68
2022/05/04 03:14:40;;;;;;;12.20;2.47;;;9.40;94.10;;;;;;5133263;27;20039;-68
2022/05/04 03:17:06;;;;;;;12.17;2.87;;;9.40;94.40;;;;;;5133491;27;20040;-68
2022/05/04 03:19:32;;;;;;;9.40;2.43;;;9.40;93.90;;;;;;5133475;28;20048;-68
2022/05/04 03:21:57;;;;;;;13.10;2.50;;;9.40;94.00;;;;;;5133240;27;20137;-68
2022/05/04 03:24:23;;;;;;;12.53;2.27;;;9.40;94.50;;;;;;5132329;28;20474;-68
2022/05/04 03:26:49;;;;;;;13.30;2.77;;;9.40;94.40;;;;;;5133095;28;20051;-68
2022/05/04 03:29:14;;;;;;;10.00;3.00;;;9.50;94.20;;;;;;5133346;28;20070;-68
2022/05/04 03:31:40;;;;;;;9.53;2.77;;;9.50;94.40;;;;;;5133069;28;20143;-69
2022/05/04 03:34:06;;;;;;;10.70;2.93;;;9.50;94.70;;;;;;5133642;28;20062;-68
2022/05/04 03:36:32;;;;;;;9.80;2.60;;;9.50;94.20;;;;;;5133288;27;20284;-68
2022/05/04 03:38:59;;;;;;;10.70;2.60;;;9.40;92.80;;;;;;5136304;27;20039;-68
2022/05/04 03:41:25;;;;;;;8.90;3.10;;;9.40;92.70;;;;;;5137427;27;20046;-68
2022/05/04 03:43:51;;;;;;;12.10;2.73;;;9.40;92.50;;;;;;5136736;27;20324;-68
2022/05/04 03:46:18;;;;;;;8.57;2.10;;;9.40;92.40;;;;;;5136981;27;20742;-68
2022/05/04 03:48:45;;;;;;;11.77;2.50;;;9.40;92.30;;;;;;5136607;27;20096;-68
2022/05/04 03:51:14;;;;;;;12.17;2.37;;;9.40;92.70;;;;;;5136916;27;20288;-68
2022/05/04 03:53:40;;;;;;;13.57;2.93;;;9.40;93.20;;;;;;5136366;27;20292;-68
2022/05/04 03:56:07;;;;;;;11.20;2.60;;;9.40;93.20;;;;;;5118711;27;20292;-68
2022/05/04 03:58:33;;;;;;;9.00;2.37;;;9.40;93.50;;;;;;5136717;27;20635;-68
2022/05/04 04:00:59;;;;;;;11.10;2.23;;;9.40;93.20;;;;;;5136380;27;20368;-68
2022/05/04 04:03:25;;;;;;;11.67;3.13;;;9.40;93.40;;;;;;5136655;27;20320;-68
2022/05/04 04:05:50;;;;;;;9.70;2.27;;;9.40;93.00;;;;;;5118172;27;20387;-68
2022/05/04 04:08:16;;;;;;;13.50;2.70;;;9.40;93.60;;;;;;5136662;27;20043;-68
2022/05/04 04:10:42;;;;;;;10.93;2.40;;;9.40;93.40;;;;;;5135376;27;20486;-71
2022/05/04 04:13:07;;;;;;;10.17;2.97;;;9.40;93.10;;;;;;5136389;27;20042;-68
2022/05/04 04:15:33;;;;;;;9.83;2.40;;;9.40;93.30;;;;;;5136609;27;20069;-68
2022/05/04 04:17:59;;;;;;;11.27;2.50;;;9.40;94.00;;;;;;5136080;27;20050;-68
2022/05/04 04:23:10;;;;;;;11.30;3.07;;;9.40;94.20;;;;;;5136285;27;20051;-68
2022/05/04 04:25:36;;;;;;;11.30;2.40;;;9.40;94.50;;;;;;5136228;27;20281;-68
2022/05/04 04:28:02;;;;;;;11.60;2.40;;;9.40;94.20;;;;;;5135792;27;20288;-68
2022/05/04 04:30:28;;;;;;;13.43;2.33;;;9.40;93.60;;;;;;5134923;27;20289;-68
2022/05/04 04:32:53;;;;;;;11.67;2.27;;;9.30;93.40;;;;;;5135655;27;20039;-68
2022/05/04 04:35:19;;;;;;;15.13;2.63;;;9.40;93.10;;;;;;5136109;27;20046;-68
2022/05/04 04:37:45;;;;;;;10.53;2.53;;;9.40;93.00;;;;;;5135743;27;20046;-71
2022/05/04 04:40:11;;;;;;;9.40;2.07;;;9.40;92.80;;;;;;5136256;27;20047;-68
2022/05/04 04:42:37;;;;;;;11.67;2.57;;;9.40;92.60;;;;;;5135874;27;20094;-69
2022/05/04 04:45:04;;;;;;;7.37;2.10;;;9.40;92.50;;;;;;5135588;27;20269;-69
2022/05/04 04:47:30;;;;;;;9.73;2.90;;;9.40;92.60;;;;;;5134674;27;20050;-69
2022/05/04 04:49:56;;;;;;;10.30;2.43;;;9.40;92.40;;;;;;5135398;27;20276;-69
2022/05/04 04:52:22;;;;;;;10.07;2.47;;;9.40;92.60;;;;;;5135469;27;20300;-69
2022/05/04 04:54:48;;;;;;;8.83;2.40;;;9.50;92.50;;;;;;5135485;27;20326;-69
2022/05/04 04:57:14;;;;;;;7.17;1.83;;;9.50;92.30;;;;;;5135741;27;20488;-69
2022/05/04 04:59:39;;;;;;;10.30;2.30;;;9.40;91.20;;;;;;5135779;27;20368;-69
2022/05/04 05:02:05;;;;;;;8.67;2.50;;;9.40;91.70;;;;;;5135165;27;20429;-69
2022/05/04 05:04:31;;;;;;;14.53;2.63;;;9.50;91.70;;;;;;5135520;27;20050;-69
2022/05/04 05:06:56;;;;;;;10.23;1.70;;;9.50;91.70;;;;;;5135082;27;20043;-69
2022/05/04 05:09:22;;;;;;;9.13;2.50;;;9.50;91.90;;;;;;5135436;27;20046;-69
2022/05/04 05:11:48;;;;;;;9.30;2.10;;;9.50;91.80;;;;;;5133719;27;20095;-72
2022/05/04 05:16:58;;;;;;;7.43;2.60;;;9.50;91.00;;;;;;5134955;27;20146;-69
2022/05/04 05:19:23;;;;;;;9.10;2.77;;;9.50;90.80;;;;;;5135414;27;20772;-69
2022/05/04 05:21:49;;;;;;;5.87;2.07;;;9.50;90.90;;;;;;5134918;27;20043;-72
2022/05/04 05:24:15;;;;;;;8.43;2.07;;;9.50;91.00;;;;;;5135257;27;20047;-69
2022/05/04 05:26:40;;;;;;;8.80;2.00;;;9.50;90.90;;;;;;5134159;27;20089;-69
2022/05/04 05:29:06;;;;;;;9.63;2.70;;;9.50;91.00;;;;;;5134653;27;20043;-69
2022/05/04 05:31:32;;;;;;;11.30;3.20;;;9.60;90.70;;;;;;5134846;27;20043;-69
2022/05/04 05:33:57;;;;;;;11.03;2.50;;;9.60;91.10;;;;;;5134232;27;20118;-69
2022/05/04 05:36:23;;;;;;;11.57;2.60;;;9.60;91.00;;;;;;5135003;27;20050;-69
2022/05/04 05:38:49;;;;;;;10.60;2.30;;;9.60;91.20;;;;;;5133698;27;20121;-69
2022/05/04 05:41:14;;;;;;;7.47;2.23;;;9.70;91.60;;;;;;5134502;27;20174;-69
2022/05/04 05:43:40;;;;;;;12.33;2.60;;;9.60;91.70;;;;;;5135011;27;20039;-69
2022/05/04 05:46:06;;;;;;;8.07;2.20;;;9.60;91.90;;;;;;5134689;27;20078;-69
2022/05/04 05:48:31;;;;;;;11.23;2.60;;;9.70;92.30;;;;;;5134874;27;20051;-69
2022/05/04 05:50:57;;;;;;;8.97;2.53;;;9.70;92.40;;;;;;5134251;27;20047;-69
2022/05/04 05:53:23;;;;;;;14.27;2.70;;;9.70;92.20;;;;;;5134546;27;20051;-69
2022/05/04 05:55:49;;;;;;;11.03;2.10;;;9.70;91.60;;;;;;5134505;27;20095;-69
2022/05/04 05:58:15;;;;;;;13.37;2.47;;;9.70;91.70;;;;;;5116285;27;20042;-69
2022/05/04 06:00:41;;;;;;;9.30;2.33;;;9.70;91.20;;;;;;5133875;27;20333;-69
2022/05/04 06:03:07;;;;;;;14.30;2.90;;;9.70;91.50;;;;;;5133975;27;20043;-69
2022/05/04 06:05:32;;;;;;;7.80;2.00;;;9.70;91.60;;;;;;5134462;27;20043;-69
2022/05/04 06:07:58;;;;;;;8.97;2.40;;;9.80;91.70;;;;;;5134035;27;20107;-69
2022/05/04 06:10:24;;;;;;;10.63;2.50;;;9.80;91.50;;;;;;5134276;27;20047;-69
2022/05/04 06:12:50;;;;;;;9.90;2.00;;;9.90;91.20;;;;;;5134170;27;20047;-69
2022/05/04 06:15:16;;;;;;;12.40;2.33;;;9.90;91.00;;;;;;5133853;27;20047;-69
2022/05/04 06:17:44;;;;;;;9.70;2.00;;;9.90;90.50;;;;;;5134260;27;20743;-69
2022/05/04 06:20:10;;;;;;;9.93;2.23;;;10.00;89.80;;;;;;5132755;27;20047;-69
2022/05/04 06:22:35;;;;;;;10.37;2.40;;;10.00;87.70;;;;;;5134324;27;20276;-69
2022/05/04 06:25:01;;;;;;;9.00;1.90;;;10.00;87.80;;;;;;5133840;27;20100;-69
2022/05/04 06:27:29;;;;;;;7.00;2.00;;;10.00;87.50;;;;;;5134031;27;20440;-69
2022/05/04 06:35:24;;;;;;;8.63;2.17;;;10.00;81.80;;;;;;5134282;27;20440;-69
2022/05/04 06:37:49;;;;;;;9.07;2.00;;;9.90;81.80;;;;;;5133832;27;20511;-69
2022/05/04 06:40:15;;;;;;;11.37;2.30;;;9.90;81.60;;;;;;5133283;28;20134;-69
2022/05/04 06:42:41;;;;;;;6.30;1.73;;;9.90;82.40;;;;;;5134251;28;20039;-69
2022/05/04 06:45:07;;;;;;;9.73;2.53;;;9.90;81.30;;;;;;5133307;27;20490;-68
2022/05/04 06:47:33;;;;;;;14.07;2.53;;;10.10;82.00;;;;;;5130087;28;20535;-67
2022/05/04 06:49:59;;;;;;;11.60;2.53;;;10.20;82.20;;;;;;5133057;27;20295;-69
2022/05/04 06:52:26;;;;;;;12.73;2.50;;;10.40;80.00;;;;;;5132104;28;20309;-68
2022/05/04 06:54:52;;;;;;;9.70;2.20;;;10.60;77.60;;;;;;5133914;27;20357;-68
2022/05/04 06:57:18;;;;;;;9.23;2.60;;;10.80;76.40;;;;;;5132264;28;20471;-68
2022/05/04 06:59:43;;;;;;;7.77;2.60;;;11.00;75.40;;;;;;5133719;28;20748;-69
2022/05/04 07:02:09;;;;;;;8.27;2.40;;;11.30;72.80;;;;;;5133447;27;20043;-70
2022/05/04 07:04:35;;;;;;;10.83;2.37;;;11.90;72.40;;;;;;5134016;28;20116;-70
2022/05/04 07:07:00;;;;;;;9.37;2.43;;;12.80;70.40;;;;;;5133220;28;20054;-70
2022/05/04 07:09:26;;;;;;;12.40;2.17;;;13.20;64.70;;;;;;5133960;27;20043;-70
2022/05/04 07:11:52;;;;;;;10.30;1.90;;;13.20;61.20;;;;;;5133757;27;20452;-70
2022/05/04 07:14:18;;;;;;;9.37;2.07;;;13.20;61.60;;;;;;5136220;27;20051;-70
2022/05/04 07:16:45;;;;;;;8.63;2.07;;;13.00;60.60;;;;;;5136599;27;20602;-70
2022/05/04 07:19:11;;;;;;;8.87;1.87;;;12.90;61.00;;;;;;5136290;27;20043;-70
2022/05/04 07:21:36;;;;;;;8.30;2.20;;;12.90;66.70;;;;;;5136717;27;20284;-69
2022/05/04 07:24:02;;;;;;;7.77;1.87;;;12.70;61.30;;;;;;5136162;27;20280;-71
2022/05/04 07:26:28;;;;;;;9.10;2.30;;;12.70;61.50;;;;;;5136466;27;20039;-71
2022/05/04 07:28:54;;;;;;;8.10;1.73;;;12.60;60.80;;;;;;5136389;27;20771;-71
2022/05/04 07:31:19;;;;;;;9.87;2.10;;;12.60;61.40;;;;;;5134751;27;20035;-71
2022/05/04 07:33:45;;;;;;;7.60;2.43;;;12.50;61.00;;;;;;5136196;27;20559;-70
2022/05/04 07:36:11;;;;;;;7.67;1.80;;;12.40;60.90;;;;;;5135962;27;20051;-71
2022/05/04 07:38:36;;;;;;;12.70;2.23;;;12.30;60.80;;;;;;5136565;27;20047;-71
2022/05/04 07:43:47;;;;;;;6.72;1.83;;;12.20;61.10;;;;;;5136186;27;20399;-69
2022/05/04 07:46:13;;;;;;;7.57;1.87;;;12.20;61.20;;;;;;5135904;27;20074;-71
2022/05/04 07:48:39;;;;;;;8.03;2.27;;;12.10;61.20;;;;;;5137026;27;20276;-70
2022/05/04 07:51:04;;;;;;;7.37;1.80;;;12.10;61.40;;;;;;5136857;27;20083;-70
2022/05/04 07:53:30;;;;;;;9.87;2.13;;;12.10;62.40;;;;;;5136907;27;20055;-69
2022/05/04 07:55:57;;;;;;;9.33;2.50;;;12.10;62.10;;;;;;5135903;27;20043;-69
2022/05/04 07:58:22;;;;;;;8.13;2.50;;;12.10;61.50;;;;;;5135829;27;20380;-69
2022/05/04 08:06:24;;;;;;;9.67;2.37;;;11.90;62.40;;;;;;5136628;27;20281;-69
2022/05/04 08:08:50;;;;;;;7.37;2.30;;;12.00;63.00;;;;;;5136846;27;20697;-69
2022/05/04 08:11:16;;;;;;;11.00;2.27;;;12.00;62.80;;;;;;5135547;27;20126;-69
2022/05/04 08:13:42;;;;;;;10.90;2.00;;;12.10;62.70;;;;;;5136691;27;20360;-69
2022/05/04 08:16:10;;;;;;;8.03;2.57;;;12.10;62.20;;;;;;5136425;27;20088;-69
2022/05/04 08:18:39;;;;;;;8.40;1.90;;;12.20;61.90;;;;;;5136528;27;20622;-69
2022/05/04 08:21:04;;;;;;;5.93;2.17;;;12.10;60.80;;;;;;5136601;27;20280;-69
2022/05/04 08:23:31;;;;;;;11.40;2.70;;;12.00;61.30;;;;;;5134565;27;20625;-69
2022/05/04 08:25:56;;;;;;;8.63;2.23;;;12.30;62.10;;;;;;5136409;27;20047;-69
2022/05/04 08:28:23;;;;;;;9.40;2.40;;;12.50;62.50;;;;;;5135218;27;20284;-69
2022/05/04 08:30:49;;;;;;;14.27;3.83;;;13.00;62.10;;;;;;5136400;27;20444;-70
2022/05/04 08:33:15;;;;;;;8.70;2.17;;;13.20;61.20;;;;;;5135702;27;20292;-70
2022/05/04 08:35:41;;;;;;;13.47;2.27;;;13.20;59.90;;;;;;5136402;27;20055;-66
2022/05/04 08:38:07;;;;;;;7.53;2.03;;;13.20;59.30;;;;;;5136023;27;20365;-70
2022/05/04 08:40:33;;;;;;;8.77;2.10;;;13.20;58.40;;;;;;5135732;27;20047;-70
2022/05/04 08:43:05;;;;;;;10.57;2.30;;;13.20;59.10;;;;;;5136009;27;20046;-70
2022/05/04 08:45:35;;;;;;;7.27;1.73;;;13.20;58.50;;;;;;5135604;27;20279;-68
2022/05/04 08:48:03;;;;;;;10.33;2.50;;;13.20;58.70;;;;;;5136050;27;20269;-69
2022/05/04 08:50:29;;;;;;;11.30;2.27;;;13.20;59.30;;;;;;5135553;27;20281;-70
2022/05/04 08:52:55;;;;;;;9.07;2.43;;;13.20;59.00;;;;;;5134329;27;20326;-69
2022/05/04 08:55:22;;;;;;;11.73;2.53;;;13.30;59.00;;;;;;5135516;27;20047;-70
2022/05/04 08:57:47;;;;;;;11.13;2.30;;;13.30;58.70;;;;;;5134777;27;20353;-69
2022/05/04 09:00:14;;;;;;;10.40;1.97;;;13.30;58.30;;;;;;5134443;27;20285;-69
2022/05/04 09:02:41;;;;;;;9.53;2.20;;;13.20;58.50;;;;;;5135588;27;20118;-69
2022/05/04 09:05:23;;;;;;;7.00;1.90;;;13.30;59.00;;;;;;5135542;27;20280;-68
2022/05/04 09:07:51;;;;;;;12.93;2.90;;;13.20;57.80;;;;;;5135494;27;20760;-70
2022/05/04 09:10:22;;;;;;;6.97;2.43;;;13.10;58.40;;;;;;5135087;27;20281;-69
2022/05/04 09:12:52;;;;;;;8.37;2.10;;;13.20;58.60;;;;;;5135224;27;20511;-70
2022/05/04 09:15:24;;;;;;;6.77;2.33;;;13.40;72.80;;;;;;5134684;27;20761;-70
2022/05/04 09:18:00;;;;;;;14.80;2.70;;;13.50;58.00;;;;;;5135235;27;20277;-69
2022/05/04 09:20:49;;;;;;;9.50;3.40;;;13.80;57.00;;;;;;5134965;27;20284;-70
2022/05/04 09:23:28;;;;;;;9.07;2.27;;;13.70;56.90;;;;;;5134924;27;20273;-70
2022/05/04 09:25:56;;;;;;;9.13;2.87;;;14.00;56.50;;;;;;5135202;27;20316;-70
2022/05/04 09:28:26;;;;;;;8.73;1.90;;;14.00;56.40;;;;;;5133837;27;20372;-70
2022/05/04 09:30:57;;;;;;;9.60;2.13;;;14.10;56.20;;;;;;5133922;27;20279;-69
2022/05/04 09:33:32;;;;;;;8.03;2.40;;;14.00;55.40;;;;;;5134777;27;20324;-68
2022/05/04 09:35:59;;;;;;;13.70;2.72;;;13.90;55.60;;;;;;5133168;27;20796;-69
2022/05/04 09:46:48;;;;;;;8.25;2.22;;;14.20;55.80;;;;;;5134913;27;20273;-69
2022/05/04 09:49:28;;;;;;;10.87;2.43;;;14.30;55.00;;;;;;5134675;27;20130;-68
2022/05/04 09:51:54;;;;;;;12.20;2.40;;;14.40;54.80;;;;;;5135142;27;20296;-68
2022/05/04 09:54:22;;;;;;;9.87;2.60;;;14.40;54.40;;;;;;5132683;27;20288;-69
2022/05/04 09:56:50;;;;;;;9.67;2.90;;;14.40;54.50;;;;;;5134508;27;20276;-68
2022/05/04 09:59:18;;;;;;;7.20;3.07;;;14.50;54.80;;;;;;5134459;27;20281;-68
2022/05/04 10:01:44;;;;;;;9.40;2.77;;;14.50;54.30;;;;;;5133625;27;20280;-68
2022/05/04 10:04:11;;;;;;;11.30;2.50;;;14.40;54.10;;;;;;5134762;27;20294;-68
2022/05/04 10:06:38;;;;;;;8.33;2.43;;;14.30;54.40;;;;;;5134088;27;21214;-68
2022/05/04 10:09:04;;;;;;;10.50;2.47;;;14.00;53.90;;;;;;5134296;27;20288;-68
2022/05/04 10:11:33;;;;;;;7.07;2.20;;;13.80;54.10;;;;;;5134022;27;20357;-68
2022/05/04 10:14:03;;;;;;;9.30;2.10;;;13.50;54.50;;;;;;5134309;27;20828;-68
2022/05/04 10:16:33;;;;;;;7.87;2.37;;;13.40;61.20;;;;;;5115638;27;20640;-68
2022/05/04 10:19:04;;;;;;;9.93;2.53;;;13.20;57.80;;;;;;5134319;27;20269;-68
2022/05/04 10:21:30;;;;;;;9.70;2.80;;;13.10;56.40;;;;;;5133844;27;20732;-68
2022/05/04 10:24:06;;;;;;;9.50;2.50;;;13.10;56.40;;;;;;5134030;27;20283;-69
2022/05/04 10:26:33;;;;;;;11.87;3.40;;;13.10;56.80;;;;;;5132903;27;20281;-68
2022/05/04 10:31:54;;;;;;;9.15;2.70;;;13.20;56.30;;;;;;5132518;27;20350;-68
2022/05/04 10:34:20;;;;;;;8.60;2.20;;;13.20;56.70;;;;;;5133509;27;20491;-72
2022/05/04 10:36:53;;;;;;;10.70;2.40;;;13.10;57.00;;;;;;5132748;27;20322;-68
2022/05/04 10:39:24;;;;;;;9.90;2.93;;;13.10;57.40;;;;;;5134020;27;20051;-69
2022/05/04 10:41:50;;;;;;;9.20;2.50;;;13.10;57.40;;;;;;5134238;27;20331;-68
2022/05/04 10:44:17;;;;;;;5.80;2.20;;;13.20;57.20;;;;;;5133860;27;20315;-69
2022/05/04 10:46:46;;;;;;;9.27;2.80;;;13.30;57.20;;;;;;5134524;27;20690;-69
2022/05/04 10:49:14;;;;;;;8.30;2.37;;;13.30;58.00;;;;;;5138289;27;20281;-69
2022/05/04 10:51:41;;;;;;;7.27;2.13;;;13.40;57.00;;;;;;5136714;27;20760;-70
2022/05/04 10:54:11;;;;;;;12.37;2.70;;;13.40;57.50;;;;;;5138256;27;20289;-70
2022/05/04 10:56:45;;;;;;;8.43;2.37;;;13.40;57.20;;;;;;5137846;27;20288;-70
2022/05/04 10:59:13;;;;;;;8.03;2.10;;;13.30;57.30;;;;;;5138037;27;20272;-70
2022/05/04 11:01:40;;;;;;;11.27;2.40;;;13.30;57.30;;;;;;5136685;27;20752;-70
2022/05/04 11:04:09;;;;;;;8.07;2.40;;;13.20;57.40;;;;;;5138013;27;20276;-69
2022/05/04 11:06:38;;;;;;;10.17;2.63;;;13.20;57.70;;;;;;5137648;27;20285;-70
2022/05/04 11:09:15;;;;;;;7.63;2.33;;;13.20;57.60;;;;;;5137837;27;20289;-74
2022/05/04 11:11:45;;;;;;;9.53;2.27;;;13.10;58.10;;;;;;5136558;27;20336;-70
2022/05/04 11:14:14;;;;;;;9.17;2.40;;;13.20;58.80;;;;;;5137823;27;20269;-70
2022/05/04 11:16:41;;;;;;;10.57;2.60;;;13.20;58.70;;;;;;5136438;27;20276;-69
2022/05/04 11:19:11;;;;;;;8.83;2.40;;;13.20;58.70;;;;;;5137638;27;20284;-72
2022/05/04 11:21:37;;;;;;;7.23;2.23;;;13.20;58.40;;;;;;5137269;27;20279;-69
2022/05/04 11:24:05;;;;;;;8.20;2.80;;;13.20;58.30;;;;;;5119713;27;20280;-68
2022/05/04 11:26:42;;;;;;;9.57;2.50;;;13.30;58.20;;;;;;5137140;27;20269;-70
2022/05/04 11:29:08;;;;;;;9.80;2.43;;;13.30;58.10;;;;;;5137609;27;20277;-69
2022/05/04 11:31:34;;;;;;;10.13;2.60;;;13.30;58.10;;;;;;5137068;27;20284;-69
2022/05/04 11:34:01;;;;;;;8.67;2.40;;;13.30;58.30;;;;;;5136168;27;20273;-68
2022/05/04 11:36:27;;;;;;;8.17;2.27;;;13.30;58.60;;;;;;5137029;27;20046;-71
2022/05/04 11:38:53;;;;;;;6.77;2.27;;;13.30;58.60;;;;;;5137296;27;20277;-69
2022/05/04 11:41:20;;;;;;;8.63;2.17;;;13.30;58.50;;;;;;5136109;27;20342;-68
2022/05/04 11:43:49;;;;;;;8.77;2.73;;;13.30;58.90;;;;;;5136531;27;20058;-68
2022/05/04 11:46:15;;;;;;;8.40;2.80;;;13.40;58.50;;;;;;5136322;27;20288;-69
2022/05/04 11:48:46;;;;;;;9.27;2.50;;;13.30;58.60;;;;;;5136846;27;20292;-68
2022/05/04 11:51:15;;;;;;;9.50;2.77;;;13.30;58.60;;;;;;5136115;27;20605;-69
2022/05/04 11:53:42;;;;;;;10.13;2.90;;;13.20;58.60;;;;;;5136664;27;20761;-68
2022/05/04 11:56:08;;;;;;;9.27;2.73;;;13.20;58.80;;;;;;5136884;27;20284;-68
2022/05/04 11:58:35;;;;;;;12.07;3.07;;;13.20;59.40;;;;;;5134512;27;20277;-69
2022/05/04 12:01:03;;;;;;;11.20;3.20;;;13.30;59.80;;;;;;5136742;27;20625;-68
2022/05/04 12:03:32;;;;;;;8.10;2.50;;;13.30;59.60;;;;;;5136692;27;20265;-72
2022/05/04 12:06:00;;;;;;;11.77;3.23;;;13.30;59.50;;;;;;5136936;27;20317;-69
2022/05/04 12:08:26;;;;;;;11.97;2.90;;;13.30;58.60;;;;;;5136809;27;20269;-68
2022/05/04 12:10:53;;;;;;;9.97;3.27;;;13.20;58.80;;;;;;5136461;27;20279;-69
2022/05/04 12:13:24;;;;;;;7.87;2.53;;;13.20;59.20;;;;;;5136267;27;20864;-69
2022/05/04 12:15:54;;;;;;;9.40;2.63;;;13.20;59.50;;;;;;5135112;27;20284;-69
2022/05/04 12:18:21;;;;;;;6.83;2.43;;;13.30;59.90;;;;;;5135522;27;20296;-68
2022/05/04 12:20:47;;;;;;;7.33;2.40;;;13.30;60.00;;;;;;5136180;27;20280;-69
2022/05/04 12:23:13;;;;;;;7.27;2.80;;;13.40;59.80;;;;;;5136362;27;20337;-69
2022/05/04 12:25:43;;;;;;;8.77;2.30;;;13.40;59.90;;;;;;5134472;27;20329;-67
2022/05/04 12:28:10;;;;;;;7.43;2.67;;;13.40;60.10;;;;;;5135936;27;20285;-70
2022/05/04 12:33:33;;;;;;;8.27;2.87;;;13.50;59.40;;;;;;5134103;27;20293;-66
2022/05/04 12:36:07;;;;;;;11.93;3.00;;;13.40;59.80;;;;;;5135703;27;20269;-67
2022/05/04 12:38:34;;;;;;;10.35;2.83;;;13.50;60.10;;;;;;5135196;27;20768;-70
2022/05/04 12:41:02;;;;;;;9.17;2.97;;;13.50;59.60;;;;;;5132938;27;20047;-71
2022/05/04 12:43:36;;;;;;;8.93;2.77;;;13.60;59.60;;;;;;5135946;27;20269;-70
2022/05/04 12:46:07;;;;;;;12.57;3.67;;;13.60;59.20;;;;;;5135974;27;20277;-69
2022/05/04 12:48:35;;;;;;;13.13;3.17;;;13.50;59.20;;;;;;5135929;27;20043;-68
2022/05/04 12:51:01;;;;;;;8.50;3.00;;;13.50;59.20;;;;;;5134882;27;20281;-68
2022/05/04 12:53:33;;;;;;;14.80;3.50;;;13.60;59.70;;;;;;5135082;27;20301;-68
2022/05/04 12:58:45;;;;;;;7.95;3.08;;;13.60;59.20;;;;;;5134739;27;20360;-68
2022/05/04 13:01:10;;;;;;;8.57;3.13;;;13.60;59.80;;;;;;5134652;27;20054;-68
2022/05/04 13:03:36;;;;;;;11.60;3.30;;;13.60;60.10;;;;;;5135560;27;20281;-68
2022/05/04 13:06:03;;;;;;;9.03;3.27;;;13.70;59.90;;;;;;5134989;27;20057;-68
2022/05/04 13:08:29;;;;;;;9.53;3.17;;;13.70;59.80;;;;;;5135827;27;20043;-68
2022/05/04 13:10:54;;;;;;;8.30;2.60;;;13.70;59.50;;;;;;5134365;27;20287;-68
2022/05/04 13:13:22;;;;;;;10.10;2.77;;;13.70;59.70;;;;;;5135706;27;20072;-68
2022/05/04 13:15:51;;;;;;;11.40;3.63;;;;;;;;;;5135292;27;20075;-68
2022/05/04 13:18:18;;;;;;;11.47;2.83;;;13.80;59.50;;;;;;5135430;27;20288;-68
2022/05/04 13:20:44;;;;;;;9.40;3.00;;;13.80;60.30;;;;;;5135186;27;20273;-69
2022/05/04 13:23:10;;;;;;;11.33;3.00;;;13.80;60.10;;;;;;5135636;27;20592;-68
2022/05/04 13:25:36;;;;;;;8.80;3.07;;;13.80;59.90;;;;;;5135265;27;20287;-68
2022/05/04 13:28:03;;;;;;;10.87;2.93;;;13.80;60.40;;;;;;5135293;27;20039;-68
2022/05/04 13:30:29;;;;;;;9.53;3.43;;;13.80;60.50;;;;;;5135379;27;20299;-68